createdAt,value
2023-05-17T00:03:01.248Z,76.27
2023-05-17T00:06:29.407Z,76.32
2023-05-17T00:09:56.645Z,76.32
2023-05-17T00:13:24.104Z,76.15
2023-05-17T00:16:54.640Z,76.36
2023-05-17T00:20:21.454Z,76.41
2023-05-17T00:23:49.211Z,76.25
2023-05-17T00:27:19.832Z,76.48
2023-05-17T00:30:49.315Z,76.36
2023-05-17T00:34:19.545Z,76.08
2023-05-17T00:37:48.401Z,76.37
2023-05-17T00:41:19.022Z,76.36
2023-05-17T00:44:46.294Z,76.35
2023-05-17T00:48:13.445Z,76.55
2023-05-17T00:51:41.466Z,76.32
2023-05-17T00:55:10.979Z,76.26
2023-05-17T00:58:38.916Z,76.28
2023-05-17T01:02:07.620Z,76.28
2023-05-17T01:05:35.255Z,76.24
2023-05-17T01:09:02.931Z,76.12
2023-05-17T01:12:41.017Z,76.17
2023-05-17T01:16:17.680Z,75.95
2023-05-17T01:20:07.075Z,75.80
2023-05-17T01:23:47.200Z,75.66
2023-05-17T01:27:17.465Z,76.05
2023-05-17T01:30:46.587Z,76.07
2023-05-17T01:34:14.556Z,76.26
2023-05-17T01:37:41.534Z,76.13
2023-05-17T01:41:17.499Z,76.03
2023-05-17T01:44:52.350Z,75.99
2023-05-17T01:48:28.432Z,76.12
2023-05-17T01:52:06.834Z,76.16
2023-05-17T01:55:43.025Z,76.27
2023-05-17T01:59:12.975Z,76.29
2023-05-17T02:02:45.236Z,75.98
2023-05-17T02:06:13.211Z,76.13
2023-05-17T02:09:40.811Z,76.19
2023-05-17T02:13:12.204Z,76.25
2023-05-17T02:16:39.661Z,76.18
2023-05-17T02:20:09.079Z,76.31
2023-05-17T02:23:39.056Z,76.15
2023-05-17T02:27:06.873Z,76.07
2023-05-17T02:30:34.910Z,75.96
2023-05-17T02:34:02.312Z,75.94
2023-05-17T02:37:29.421Z,76.01
2023-05-17T02:40:57.142Z,75.86
2023-05-17T02:44:27.305Z,75.97
2023-05-17T02:47:54.200Z,75.69
2023-05-17T02:51:22.596Z,75.53
2023-05-17T02:54:49.641Z,75.74
2023-05-17T02:58:16.762Z,75.74
2023-05-17T03:01:43.978Z,75.41
2023-05-17T03:05:12.156Z,75.14
2023-05-17T03:08:44.370Z,75.31
2023-05-17T03:12:12.620Z,75.43
2023-05-17T03:15:39.985Z,75.19
2023-05-17T03:19:08.073Z,75.29
2023-05-17T03:22:36.979Z,74.96
2023-05-17T03:26:04.208Z,74.97
2023-05-17T03:29:36.103Z,74.95
2023-05-17T03:33:03.944Z,74.86
2023-05-17T03:36:31.811Z,74.78
2023-05-17T03:39:59.326Z,74.73
2023-05-17T03:43:27.029Z,74.77
2023-05-17T03:46:55.184Z,74.63
2023-05-17T03:50:23.143Z,74.66
2023-05-17T03:53:52.703Z,74.58
2023-05-17T03:57:21.269Z,74.51
2023-05-17T04:00:48.410Z,74.34
2023-05-17T04:04:16.323Z,74.27
2023-05-17T04:07:43.958Z,74.29
2023-05-17T04:11:14.383Z,74.43
2023-05-17T04:14:41.627Z,74.29
2023-05-17T04:18:09.378Z,74.18
2023-05-17T04:21:37.009Z,74.22
2023-05-17T04:25:04.846Z,74.24
2023-05-17T04:28:35.464Z,74.24
2023-05-17T04:32:02.848Z,74.13
2023-05-17T04:35:30.661Z,74.04
2023-05-17T04:38:59.631Z,73.88
2023-05-17T04:42:28.937Z,73.88
2023-05-17T04:46:01.589Z,73.95
2023-05-17T04:49:29.592Z,73.87
2023-05-17T04:52:57.191Z,73.93
2023-05-17T04:56:25.882Z,73.60
2023-05-17T04:59:54.110Z,73.72
2023-05-17T05:03:24.223Z,73.60
2023-05-17T05:06:52.037Z,73.56
2023-05-17T05:10:19.560Z,73.57
2023-05-17T05:13:47.322Z,73.58
2023-05-17T05:17:15.311Z,73.38
2023-05-17T05:20:42.647Z,73.40
2023-05-17T05:24:15.717Z,73.49
2023-05-17T05:27:42.563Z,73.66
2023-05-17T05:31:10.811Z,73.12
2023-05-17T05:34:43.359Z,73.11
2023-05-17T05:38:11.002Z,73.03
2023-05-17T05:41:38.057Z,73.13
2023-05-17T05:45:06.293Z,73.17
2023-05-17T05:48:33.456Z,73.20
2023-05-17T05:52:01.264Z,73.23
2023-05-17T05:55:29.889Z,73.23
2023-05-17T05:58:57.905Z,73.12
2023-05-17T06:02:25.082Z,72.98
2023-05-17T06:05:51.996Z,72.95
2023-05-17T06:09:19.308Z,72.97
2023-05-17T06:12:46.429Z,72.84
2023-05-17T06:16:13.800Z,72.85
2023-05-17T06:19:40.802Z,72.90
2023-05-17T06:23:08.344Z,72.77
2023-05-17T06:26:36.365Z,72.80
2023-05-17T06:30:07.142Z,72.74
2023-05-17T06:33:38.214Z,72.38
2023-05-17T06:37:05.223Z,72.40
2023-05-17T06:40:33.447Z,72.19
2023-05-17T06:44:00.760Z,72.45
2023-05-17T06:47:29.331Z,72.04
2023-05-17T06:50:57.260Z,72.13
2023-05-17T06:54:25.288Z,72.04
2023-05-17T06:57:54.773Z,72.04
2023-05-17T07:05:10.580Z,72.30
2023-05-17T07:08:42.100Z,71.80
2023-05-17T07:12:12.779Z,71.94
2023-05-17T07:15:44.117Z,71.95
2023-05-17T07:19:15.352Z,71.55
2023-05-17T07:22:43.619Z,71.30
2023-05-17T07:26:12.453Z,71.39
2023-05-17T07:29:42.563Z,71.15
2023-05-17T07:33:10.187Z,71.16
2023-05-17T07:36:38.338Z,71.00
2023-05-17T07:40:06.076Z,70.76
2023-05-17T07:43:32.723Z,70.85
2023-05-17T07:46:59.712Z,70.73
2023-05-17T07:50:27.040Z,70.67
2023-05-17T07:53:54.461Z,70.41
2023-05-17T07:57:24.803Z,70.63
2023-05-17T08:00:52.054Z,70.65
2023-05-17T08:04:19.555Z,70.29
2023-05-17T08:07:47.040Z,70.05
2023-05-17T08:11:17.092Z,69.87
2023-05-17T08:14:46.234Z,69.45
2023-05-17T08:18:13.600Z,69.62
2023-05-17T08:21:40.934Z,69.66
2023-05-17T08:25:10.621Z,69.75
2023-05-17T08:28:37.709Z,69.40
2023-05-17T08:32:04.947Z,69.19
2023-05-17T08:35:33.696Z,69.17
2023-05-17T08:39:04.598Z,68.95
2023-05-17T08:42:32.693Z,69.23
2023-05-17T08:46:00.467Z,69.22
2023-05-17T08:49:30.320Z,68.60
2023-05-17T08:52:58.707Z,68.48
2023-05-17T08:56:34.417Z,68.27
2023-05-17T09:00:07.115Z,68.24
2023-05-17T09:03:36.832Z,68.17
2023-05-17T09:07:04.121Z,67.71
2023-05-17T09:10:32.015Z,67.82
2023-05-17T09:14:02.134Z,67.71
2023-05-17T09:17:34.281Z,67.48
2023-05-17T09:21:05.540Z,67.06
2023-05-17T09:24:33.369Z,67.15
2023-05-17T09:28:04.138Z,67.04
2023-05-17T09:31:33.570Z,67.10
2023-05-17T09:35:03.371Z,67.33
2023-05-17T09:38:31.260Z,66.82
2023-05-17T09:42:00.009Z,66.63
2023-05-17T09:45:27.482Z,66.49
2023-05-17T09:48:58.244Z,66.49
2023-05-17T09:52:27.369Z,66.69
2023-05-17T09:55:55.558Z,66.90
2023-05-17T09:59:24.076Z,66.55
2023-05-17T10:02:53.502Z,66.53
2023-05-17T10:06:43.621Z,66.30
2023-05-17T10:10:12.517Z,65.99
2023-05-17T10:13:48.035Z,66.05
2023-05-17T10:17:16.761Z,66.00
2023-05-17T10:20:44.963Z,65.48
2023-05-17T10:24:13.852Z,65.58
2023-05-17T10:27:42.235Z,65.37
2023-05-17T10:31:10.556Z,65.26
2023-05-17T10:34:38.238Z,65.21
2023-05-17T10:38:05.862Z,65.20
2023-05-17T10:41:36.572Z,64.88
2023-05-17T10:45:04.613Z,64.85
2023-05-17T10:48:33.249Z,64.71
2023-05-17T10:52:12.953Z,64.70
2023-05-17T10:55:44.246Z,64.38
2023-05-17T10:59:25.298Z,64.17
2023-05-17T11:02:52.331Z,64.23
2023-05-17T11:06:25.280Z,64.22
2023-05-17T11:09:56.023Z,64.10
2023-05-17T11:13:30.271Z,64.11
2023-05-17T11:17:00.054Z,63.81
2023-05-17T11:20:38.039Z,63.47
2023-05-17T11:24:07.396Z,63.32
2023-05-17T11:27:41.118Z,63.59
2023-05-17T11:31:06.635Z,63.37
2023-05-17T11:34:36.984Z,63.29
2023-05-17T11:38:19.341Z,62.78
2023-05-17T11:41:53.999Z,63.04
2023-05-17T11:45:21.232Z,62.76
2023-05-17T11:48:51.452Z,62.59
2023-05-17T11:52:20.532Z,62.22
2023-05-17T11:55:48.748Z,62.37
2023-05-17T11:59:22.710Z,62.17
2023-05-17T12:02:49.803Z,61.80
2023-05-17T12:06:19.047Z,61.43
2023-05-17T12:09:47.982Z,61.60
2023-05-17T12:13:15.497Z,61.49
2023-05-17T12:16:45.923Z,61.56
2023-05-17T12:20:14.366Z,61.38
2023-05-17T12:23:43.854Z,60.97
2023-05-17T12:27:11.754Z,60.67
2023-05-17T12:30:44.599Z,60.70
2023-05-17T12:34:14.425Z,60.54
2023-05-17T12:37:42.550Z,60.48
2023-05-17T12:41:11.911Z,60.36
2023-05-17T12:44:39.615Z,60.14
2023-05-17T12:48:07.815Z,59.66
2023-05-17T12:51:44.136Z,59.52
2023-05-17T12:55:16.118Z,59.64
2023-05-17T12:58:43.431Z,59.24
2023-05-17T13:02:11.240Z,58.95
2023-05-17T13:05:40.480Z,58.74
2023-05-17T13:09:10.305Z,58.62
2023-05-17T13:12:40.533Z,58.61
2023-05-17T13:16:07.995Z,58.19
2023-05-17T13:19:36.602Z,57.90
2023-05-17T13:23:03.582Z,57.59
2023-05-17T13:26:30.748Z,57.60
2023-05-17T13:29:57.751Z,57.68
2023-05-17T13:33:25.057Z,57.66
2023-05-17T13:36:52.079Z,57.92
2023-05-17T13:40:19.786Z,57.75
2023-05-17T13:43:47.265Z,57.72
2023-05-17T13:47:14.079Z,57.30
2023-05-17T13:50:41.158Z,57.27
2023-05-17T13:54:09.002Z,57.32
2023-05-17T13:57:36.548Z,57.46
2023-05-17T14:01:04.264Z,57.11
2023-05-17T14:04:31.592Z,56.90
2023-05-17T14:07:58.414Z,56.68
2023-05-17T14:11:25.122Z,56.68
2023-05-17T14:14:52.814Z,56.33
2023-05-17T14:18:20.644Z,56.51
2023-05-17T14:21:49.124Z,56.50
2023-05-17T14:25:16.163Z,56.34
2023-05-17T14:28:44.978Z,56.13
2023-05-17T14:32:22.790Z,56.19
2023-05-17T14:35:50.523Z,56.20
2023-05-17T14:39:17.985Z,56.26
2023-05-17T14:42:44.669Z,56.22
2023-05-17T14:46:12.055Z,56.15
2023-05-17T14:49:39.608Z,56.26
2023-05-17T14:53:07.373Z,55.89
2023-05-17T14:56:34.607Z,55.86
2023-05-17T15:00:01.583Z,56.01
2023-05-17T15:03:29.008Z,55.85
2023-05-17T15:06:56.307Z,55.59
2023-05-17T15:10:28.472Z,55.48
2023-05-17T15:13:57.723Z,55.45
2023-05-17T15:17:27.270Z,55.79
2023-05-17T15:20:56.031Z,55.62
2023-05-17T15:24:24.544Z,55.40
2023-05-17T15:27:51.314Z,55.54
2023-05-17T15:31:18.953Z,55.72
2023-05-17T15:34:45.678Z,55.62
2023-05-17T15:38:12.860Z,55.63
2023-05-17T15:41:40.826Z,55.49
2023-05-17T15:45:08.996Z,55.35
2023-05-17T15:48:36.293Z,55.58
2023-05-17T15:52:04.426Z,55.44
2023-05-17T15:55:32.185Z,55.03
2023-05-17T15:59:02.388Z,55.16
2023-05-17T16:02:30.769Z,55.41
2023-05-17T16:05:58.422Z,55.36
2023-05-17T16:09:26.061Z,55.05
2023-05-17T16:12:54.024Z,55.23
2023-05-17T16:16:21.579Z,55.01
2023-05-17T16:19:49.905Z,55.14
2023-05-17T16:23:17.122Z,55.14
2023-05-17T16:26:44.676Z,55.07
2023-05-17T16:30:13.746Z,54.96
2023-05-17T16:33:41.851Z,55.07
2023-05-17T16:37:08.750Z,55.32
2023-05-17T16:40:35.934Z,55.14
2023-05-17T16:44:02.810Z,55.02
2023-05-17T16:47:32.915Z,55.26
2023-05-17T16:51:01.800Z,55.37
2023-05-17T16:54:33.682Z,55.37
2023-05-17T16:58:01.237Z,54.99
2023-05-17T17:01:30.137Z,55.10
2023-05-17T17:04:59.078Z,55.02
2023-05-17T17:08:26.233Z,54.98
2023-05-17T17:11:54.259Z,55.45
2023-05-17T17:15:22.204Z,55.46
2023-05-17T17:18:49.956Z,55.51
2023-05-17T17:22:17.489Z,55.36
2023-05-17T17:25:44.827Z,55.38
2023-05-17T17:29:11.532Z,55.30
2023-05-17T17:32:39.341Z,55.37
2023-05-17T17:36:09.511Z,55.38
2023-05-17T17:39:36.124Z,55.39
2023-05-17T17:43:05.644Z,55.56
2023-05-17T17:46:32.986Z,55.61
2023-05-17T17:50:00.991Z,55.61
2023-05-17T17:53:29.178Z,55.26
2023-05-17T17:56:57.251Z,55.20
2023-05-17T18:00:26.439Z,54.96
2023-05-17T18:03:54.005Z,55.48
2023-05-17T18:07:21.467Z,55.45
2023-05-17T18:10:48.836Z,55.54
2023-05-17T18:14:16.105Z,55.42
2023-05-17T18:17:44.897Z,55.39
2023-05-17T18:21:13.254Z,55.88
2023-05-17T18:24:40.708Z,55.87
2023-05-17T18:28:21.723Z,55.86
2023-05-17T18:31:59.579Z,55.84
2023-05-17T18:35:28.155Z,55.95
2023-05-17T18:38:58.802Z,55.78
2023-05-17T18:42:26.506Z,55.76
2023-05-17T18:45:54.525Z,55.82
2023-05-17T18:49:21.923Z,55.83
2023-05-17T18:52:49.406Z,55.85
2023-05-17T18:56:22.958Z,55.67
2023-05-17T18:59:48.307Z,55.73
2023-05-17T19:03:15.520Z,55.81
2023-05-17T19:06:42.958Z,55.78
2023-05-17T19:10:11.696Z,55.79
2023-05-17T19:13:38.908Z,55.89
2023-05-17T19:17:06.264Z,55.79
2023-05-17T19:20:35.126Z,56.15
2023-05-17T19:24:02.109Z,56.18
2023-05-17T19:27:29.284Z,56.32
2023-05-17T19:30:58.160Z,56.59
2023-05-17T19:34:27.340Z,56.44
2023-05-17T19:37:57.417Z,56.61
2023-05-17T19:41:29.910Z,56.75
2023-05-17T19:44:58.842Z,56.71
2023-05-17T19:48:27.122Z,56.81
2023-05-17T19:51:54.389Z,56.98
2023-05-17T19:55:22.365Z,56.81
2023-05-17T19:58:49.451Z,56.84
2023-05-17T20:02:17.011Z,57.14
2023-05-17T20:05:45.941Z,57.20
2023-05-17T20:09:14.804Z,57.22
2023-05-17T20:12:46.940Z,57.21
2023-05-17T20:16:15.243Z,57.18
2023-05-17T20:19:42.357Z,57.51
2023-05-17T20:23:14.737Z,57.53
2023-05-17T20:26:45.272Z,57.75
2023-05-17T20:30:14.285Z,57.93
2023-05-17T20:33:41.038Z,58.11
2023-05-17T20:37:08.481Z,58.16
2023-05-17T20:40:36.973Z,58.19
2023-05-17T20:44:04.806Z,58.19
2023-05-17T20:47:34.161Z,58.09
2023-05-17T20:51:02.187Z,58.11
2023-05-17T20:54:30.878Z,58.38
2023-05-17T20:57:58.234Z,58.30
2023-05-17T21:01:26.904Z,58.54
2023-05-17T21:04:54.984Z,58.52
2023-05-17T21:08:26.463Z,58.69
2023-05-17T21:11:53.775Z,58.82
2023-05-17T21:15:21.488Z,59.00
2023-05-17T21:18:49.068Z,59.02
2023-05-17T21:22:17.236Z,59.17
2023-05-17T21:25:46.755Z,59.40
2023-05-17T21:29:14.051Z,59.34
2023-05-17T21:32:43.067Z,59.37
2023-05-17T21:36:10.406Z,59.53
2023-05-17T21:39:37.262Z,59.56
2023-05-17T21:43:04.124Z,59.85
2023-05-17T21:46:30.995Z,59.86
2023-05-17T21:49:57.841Z,59.90
2023-05-17T21:53:24.734Z,59.87
2023-05-17T21:56:51.685Z,60.12
2023-05-17T22:00:20.453Z,59.86
2023-05-17T22:03:47.925Z,59.92
2023-05-17T22:07:15.919Z,59.99
2023-05-17T22:10:43.790Z,59.81
2023-05-17T22:14:15.277Z,59.93
2023-05-17T22:17:51.501Z,60.03
2023-05-17T22:21:22.896Z,60.33
2023-05-17T22:24:54.261Z,60.72
2023-05-17T22:28:22.856Z,60.37
2023-05-17T22:31:52.120Z,60.79
2023-05-17T22:35:19.821Z,60.77
2023-05-17T22:38:48.295Z,60.77
2023-05-17T22:42:17.488Z,61.19
2023-05-17T22:45:44.571Z,61.20
2023-05-17T22:49:16.582Z,61.17
2023-05-17T22:52:43.636Z,61.06
2023-05-17T22:56:11.988Z,61.43
2023-05-17T22:59:39.650Z,61.23
2023-05-17T23:03:06.420Z,61.64
2023-05-17T23:06:34.557Z,61.58
2023-05-17T23:10:02.877Z,61.54
2023-05-17T23:13:30.887Z,61.39
2023-05-17T23:17:02.663Z,61.98
2023-05-17T23:20:29.953Z,62.04
2023-05-17T23:23:58.085Z,62.26
2023-05-17T23:27:26.259Z,62.04
2023-05-17T23:30:55.191Z,62.39
2023-05-17T23:34:24.589Z,62.72
2023-05-17T23:37:52.290Z,62.92
2023-05-17T23:41:21.859Z,62.68
2023-05-17T23:44:49.762Z,62.56
2023-05-17T23:48:21.045Z,62.88
2023-05-17T23:51:48.376Z,62.98
2023-05-17T23:55:15.459Z,62.94
2023-05-17T23:58:42.402Z,63.12
